Time;durP1;ratioP1;P1;durP2;ratioP2;P2;SDS_P1;SDS_P2;PMS_P1;PMS_P2;Temp;Humidity;BMP_temperature;BMP_pressure;BME280_temperature;BME280_humidity;BME280_pressure;Samples;Min_cycle;Max_cycle;Signal;HPM_P1;HPM_P2
2021/12/25 00:00:20;;;;;;;56.00;49.97;;;;;;;-141.48;100.00;69781.59;5175693;28;20034;-86
2021/12/25 00:02:51;;;;;;;54.22;46.58;;;;;;;-141.48;100.00;69781.59;5160196;28;20042;-84
2021/12/25 00:05:21;;;;;;;58.60;51.75;;;;;;;-141.48;100.00;69781.59;5159235;28;20484;-87
2021/12/25 00:07:52;;;;;;;53.97;47.88;;;;;;;-141.48;100.00;69781.59;5174038;28;20082;-86
2021/12/25 00:10:22;;;;;;;60.92;52.60;;;;;;;-141.48;100.00;69781.59;5174092;28;20506;-86
2021/12/25 00:12:54;;;;;;;63.15;50.05;;;;;;;-141.48;100.00;69781.59;5156665;28;20034;-86
2021/12/25 00:15:25;;;;;;;60.22;47.00;;;;;;;-141.48;100.00;69781.59;5155031;28;20026;-88
2021/12/25 00:17:55;;;;;;;61.67;49.72;;;;;;;-141.48;100.00;69781.59;5172634;28;20056;-87
2021/12/25 00:20:26;;;;;;;55.15;46.00;;;;;;;-141.48;100.00;69781.59;5173430;28;20026;-85
2021/12/25 00:22:56;;;;;;;55.65;48.03;;;;;;;-141.48;100.00;69781.59;5156409;28;20560;-84
2021/12/25 00:25:27;;;;;;;63.00;49.53;;;;;;;-141.48;100.00;69781.59;5172766;28;20503;-85
2021/12/25 00:36:19;;;;;;;34.25;30.58;;;;;;;-141.48;100.00;69781.59;5171707;28;20381;-86
2021/12/25 00:38:51;;;;;;;27.20;24.33;;;;;;;-141.48;100.00;69781.59;5153450;28;20026;-87
2021/12/25 00:41:23;;;;;;;27.65;23.73;;;;;;;-141.48;100.00;69781.59;5171141;28;20033;-86
2021/12/25 00:43:53;;;;;;;27.30;24.13;;;;;;;-141.48;100.00;69781.59;5153547;28;20551;-87
2021/12/25 00:46:24;;;;;;;21.58;19.33;;;;;;;-141.48;100.00;69781.59;5153723;28;20109;-85
2021/12/25 00:48:54;;;;;;;23.15;20.70;;;;;;;-141.48;100.00;69781.59;5171514;28;20081;-87
2021/12/25 00:51:25;;;;;;;25.85;18.88;;;;;;;-141.48;100.00;69781.59;5172111;28;20472;-87
2021/12/25 00:53:55;;;;;;;28.40;21.73;;;;;;;-141.48;100.00;69781.59;5171484;28;20022;-85
2021/12/25 00:56:25;;;;;;;21.95;19.05;;;;;;;-141.48;100.00;69781.59;5171837;28;20141;-85
2021/12/25 00:58:56;;;;;;;20.35;18.75;;;;;;;-141.48;100.00;69781.59;5172831;28;20046;-86
2021/12/25 01:01:27;;;;;;;22.90;20.60;;;;;;;-141.48;100.00;69781.59;5172868;28;20023;-87
2021/12/25 01:03:57;;;;;;;21.95;19.70;;;;;;;-141.48;100.00;69781.59;5172071;28;20050;-87
2021/12/25 01:06:27;;;;;;;22.77;20.70;;;;;;;-141.48;100.00;69781.59;5154767;28;20117;-87
2021/12/25 01:08:58;;;;;;;20.70;18.40;;;;;;;-141.48;100.00;69781.59;5154695;28;20022;-85
2021/12/25 01:11:30;;;;;;;22.17;19.80;;;;;;;-141.48;100.00;69781.59;5172632;28;20030;-85
2021/12/25 01:14:11;;;;;;;24.17;22.00;;;;;;;-141.48;100.00;69781.59;5154889;28;20408;-85
2021/12/25 01:22:24;;;;;;;22.05;18.30;;;;;;;-141.48;100.00;69781.59;5171391;28;20034;-86
2021/12/25 01:28:27;;;;;;;20.80;18.75;;;;;;;-141.48;100.00;69781.59;5170601;28;20096;-89
2021/12/25 01:41:56;;;;;;;17.70;16.35;;;;;;;-141.48;100.00;69781.59;5173073;28;20273;-86
2021/12/25 01:49:59;;;;;;;17.25;15.75;;;;;;;-141.48;100.00;69781.59;5173796;28;20454;-86
2021/12/25 01:52:30;;;;;;;16.13;14.85;;;;;;;-141.48;100.00;69781.59;5173695;28;20542;-86
2021/12/25 01:55:10;;;;;;;19.40;17.80;;;;;;;-141.48;100.00;69781.59;5172875;28;20054;-86
2021/12/25 01:57:40;;;;;;;18.10;16.58;;;;;;;-141.48;100.00;69781.59;5173648;28;20039;-84
2021/12/25 02:00:19;;;;;;;16.08;14.55;;;;;;;-141.48;100.00;69781.59;5173504;28;20097;-83
2021/12/25 02:02:51;;;;;;;17.48;15.82;;;;;;;-141.48;100.00;69781.59;5155943;28;20058;-84
2021/12/25 02:05:21;;;;;;;17.52;16.23;;;;;;;-141.48;100.00;69781.59;5172969;28;20034;-84
2021/12/25 02:07:52;;;;;;;21.67;18.08;;;;;;;-141.48;100.00;69781.59;5155477;28;20532;-84
2021/12/25 02:10:22;;;;;;;16.65;15.32;;;;;;;-141.48;100.00;69781.59;5155637;28;20030;-84
2021/12/25 02:12:53;;;;;;;19.48;17.75;;;;;;;-141.48;100.00;69781.59;5159396;28;20030;-85
2021/12/25 02:15:27;;;;;;;16.65;15.10;;;;;;;-141.48;100.00;69781.59;5176967;28;20026;-84
2021/12/25 02:18:13;;;;;;;15.00;13.63;;;;;;;-141.48;100.00;69781.59;5177514;28;20564;-85
2021/12/25 02:20:56;;;;;;;15.18;13.75;;;;;;;-141.48;100.00;69781.59;5177151;28;20073;-84
2021/12/25 02:23:27;;;;;;;15.90;14.63;;;;;;;-141.48;100.00;69781.59;5159122;28;20023;-84
2021/12/25 02:25:57;;;;;;;15.73;14.25;;;;;;;-141.48;100.00;69781.59;5177210;28;20057;-84
2021/12/25 02:28:28;;;;;;;15.23;13.90;;;;;;;-141.48;100.00;69781.59;5178202;28;20089;-84
2021/12/25 02:31:02;;;;;;;15.77;14.25;;;;;;;-141.48;100.00;69781.59;5177071;28;20049;-84
2021/12/25 02:33:33;;;;;;;17.80;16.10;;;;;;;-141.48;100.00;69781.59;5177211;28;20090;-85
2021/12/25 02:36:05;;;;;;;20.30;18.23;;;;;;;-141.48;100.00;69781.59;5177347;28;20064;-85
2021/12/25 02:38:37;;;;;;;20.08;17.67;;;;;;;-141.48;100.00;69781.59;5160728;28;20019;-84
2021/12/25 02:41:08;;;;;;;17.65;16.13;;;;;;;-141.48;100.00;69781.59;5177140;28;20101;-84
2021/12/25 02:43:43;;;;;;;19.90;18.17;;;;;;;-141.48;100.00;69781.59;5183734;28;20030;-84
2021/12/25 02:46:14;;;;;;;18.90;17.38;;;;;;;-141.48;100.00;69781.59;5184610;28;20022;-84
2021/12/25 02:48:44;;;;;;;16.08;14.57;;;;;;;-141.48;100.00;69781.59;5181617;28;20037;-84
2021/12/25 02:51:15;;;;;;;19.70;18.23;;;;;;;-141.48;100.00;69781.59;5176005;28;20030;-84
2021/12/25 02:53:45;;;;;;;16.38;14.82;;;;;;;-141.48;100.00;69781.59;5174339;28;20157;-84
2021/12/25 02:56:16;;;;;;;19.42;17.65;;;;;;;-141.48;100.00;69781.59;5173953;28;20029;-83
2021/12/25 02:58:46;;;;;;;18.85;17.13;;;;;;;-141.48;100.00;69781.59;5156879;28;20087;-84
2021/12/25 03:01:19;;;;;;;22.65;20.60;;;;;;;-141.48;100.00;69781.59;5173977;28;20395;-84
2021/12/25 03:03:50;;;;;;;27.50;24.60;;;;;;;-141.48;100.00;69781.59;5181387;28;20034;-85
2021/12/25 03:06:22;;;;;;;25.83;23.42;;;;;;;-141.48;100.00;69781.59;5175667;28;20090;-84
2021/12/25 03:08:53;;;;;;;25.08;22.77;;;;;;;-141.48;100.00;69781.59;5177361;28;20332;-84
2021/12/25 03:11:24;;;;;;;26.42;23.88;;;;;;;-141.48;100.00;69781.59;5177453;28;20105;-84
2021/12/25 03:14:12;;;;;;;29.70;26.92;;;;;;;-141.48;100.00;69781.59;5177097;28;20049;-84
2021/12/25 03:16:43;;;;;;;30.15;27.05;;;;;;;-141.48;100.00;69781.59;5177061;28;20030;-84
2021/12/25 03:19:21;;;;;;;29.05;26.38;;;;;;;-141.48;100.00;69781.59;5177352;28;20534;-84
2021/12/25 03:21:51;;;;;;;32.45;28.45;;;;;;;-141.48;100.00;69781.59;5177263;28;20026;-84
2021/12/25 03:24:21;;;;;;;32.33;29.50;;;;;;;-141.48;100.00;69781.59;5176268;28;20503;-84
2021/12/25 03:26:54;;;;;;;34.33;30.80;;;;;;;-141.48;100.00;69781.59;5176450;28;20033;-84
2021/12/25 03:29:26;;;;;;;33.60;30.10;;;;;;;-141.48;100.00;69781.59;5177010;28;20018;-84
2021/12/25 03:31:57;;;;;;;32.17;29.17;;;;;;;-141.48;100.00;69781.59;5177397;28;20085;-84
2021/12/25 03:34:27;;;;;;;33.70;30.67;;;;;;;-141.48;100.00;69781.59;5176085;28;20054;-84
2021/12/25 03:36:58;;;;;;;37.33;33.47;;;;;;;-141.48;100.00;69781.59;5159114;28;20022;-84
2021/12/25 03:39:28;;;;;;;35.85;32.10;;;;;;;-141.48;100.00;69781.59;5159850;28;20456;-84
2021/12/25 03:41:59;;;;;;;39.28;35.33;;;;;;;-141.48;100.00;69781.59;5176791;28;20030;-84
2021/12/25 03:44:31;;;;;;;40.40;36.25;;;;;;;-141.48;100.00;69781.59;5173198;28;20025;-84
2021/12/25 03:47:12;;;;;;;34.83;31.40;;;;;;;-141.48;100.00;69781.59;5184384;28;20026;-84
2021/12/25 03:58:18;;;;;;;40.38;36.35;;;;;;;-141.48;100.00;69781.59;5185401;28;20065;-86
2021/12/25 04:00:50;;;;;;;41.67;37.38;;;;;;;-141.48;100.00;69781.59;5185236;28;20042;-84
2021/12/25 04:03:38;;;;;;;38.90;34.95;;;;;;;-141.48;100.00;69781.59;5167949;28;20077;-87
2021/12/25 04:06:10;;;;;;;41.17;37.20;;;;;;;-141.48;100.00;69781.59;5180919;28;20041;-84
2021/12/25 04:08:44;;;;;;;41.55;37.20;;;;;;;-141.48;100.00;69781.59;5176369;28;20046;-84
2021/12/25 04:11:26;;;;;;;39.67;35.03;;;;;;;-141.48;100.00;69781.59;5177195;28;20431;-83
2021/12/25 04:13:57;;;;;;;38.53;34.90;;;;;;;-141.48;100.00;69781.59;5159301;28;20129;-83
2021/12/25 04:16:27;;;;;;;41.85;37.75;;;;;;;-141.48;100.00;69781.59;5176899;28;20109;-84
2021/12/25 04:18:58;;;;;;;41.25;36.88;;;;;;;-141.48;100.00;69781.59;5176855;28;20559;-84
2021/12/25 04:21:29;;;;;;;36.70;33.38;;;;;;;-141.48;100.00;69781.59;5176831;28;20061;-83
2021/12/25 04:23:59;;;;;;;40.40;36.78;;;;;;;-141.48;100.00;69781.59;5176585;28;20041;-83
2021/12/25 04:26:30;;;;;;;35.72;32.60;;;;;;;-141.48;100.00;69781.59;5176887;28;20026;-84
2021/12/25 04:29:15;;;;;;;38.75;34.50;;;;;;;-141.48;100.00;69781.59;5177595;28;20431;-84
2021/12/25 04:49:17;;;;;;;36.45;32.80;;;;;;;-141.48;100.00;69781.59;5176526;28;20042;-83
2021/12/25 05:03:01;;;;;;;34.08;30.83;;;;;;;-141.48;100.00;69781.59;5165886;28;20030;-64
2021/12/25 05:05:33;;;;;;;30.65;27.83;;;;;;;-141.48;100.00;69781.59;5148133;28;20081;-63
2021/12/25 05:08:04;;;;;;;35.30;32.17;;;;;;;-141.48;100.00;69781.59;5148083;28;20026;-63
2021/12/25 05:10:35;;;;;;;31.27;28.10;;;;;;;-141.48;100.00;69781.59;5148246;28;20271;-63
2021/12/25 05:13:05;;;;;;;32.33;29.23;;;;;;;-141.48;100.00;69781.59;5147982;28;20040;-63
2021/12/25 05:15:36;;;;;;;30.75;27.88;;;;;;;-141.48;100.00;69781.59;5147568;28;20037;-63
2021/12/25 05:18:06;;;;;;;29.00;26.25;;;;;;;-141.48;100.00;69781.59;5147864;28;20034;-63
2021/12/25 05:20:37;;;;;;;30.38;27.20;;;;;;;-141.48;100.00;69781.59;5148058;28;20050;-62
2021/12/25 05:23:08;;;;;;;27.35;24.85;;;;;;;-141.48;100.00;69781.59;5147690;28;20120;-63
2021/12/25 05:25:40;;;;;;;26.13;23.67;;;;;;;-141.48;100.00;69781.59;5147528;28;20092;-63
2021/12/25 05:28:12;;;;;;;24.10;21.60;;;;;;;-141.48;100.00;69781.59;5147892;28;20026;-62
2021/12/25 05:30:43;;;;;;;21.15;19.00;;;;;;;-141.48;100.00;69781.59;5147489;28;20449;-65
2021/12/25 05:33:13;;;;;;;23.85;22.00;;;;;;;-141.48;100.00;69781.59;5147681;28;20042;-64
2021/12/25 05:35:44;;;;;;;22.92;21.02;;;;;;;-141.48;100.00;69781.59;5147362;28;20026;-64
2021/12/25 05:38:15;;;;;;;25.55;22.95;;;;;;;-141.48;100.00;69781.59;5147719;28;20026;-63
2021/12/25 05:40:47;;;;;;;23.88;21.60;;;;;;;-141.48;100.00;69781.59;5147381;28;20486;-64
2021/12/25 05:43:17;;;;;;;25.38;22.90;;;;;;;-141.48;100.00;69781.59;5147345;28;20113;-64
2021/12/25 05:45:48;;;;;;;23.35;21.05;;;;;;;-141.48;100.00;69781.59;5147223;28;20113;-64
2021/12/25 05:48:19;;;;;;;25.15;22.55;;;;;;;-141.48;100.00;69781.59;5147524;28;20037;-64
2021/12/25 05:50:50;;;;;;;22.20;19.92;;;;;;;-141.48;100.00;69781.59;5147576;28;20039;-66
2021/12/25 05:53:21;;;;;;;22.98;20.83;;;;;;;-141.48;100.00;69781.59;5147298;28;20030;-62
2021/12/25 05:55:51;;;;;;;21.17;19.25;;;;;;;-141.48;100.00;69781.59;5147265;28;20458;-64
2021/12/25 05:58:22;;;;;;;19.38;17.63;;;;;;;-141.48;100.00;69781.59;5147428;28;20537;-63
2021/12/25 06:00:52;;;;;;;21.27;18.85;;;;;;;-141.48;100.00;69781.59;5147097;28;20030;-64
2021/12/25 06:03:23;;;;;;;22.85;20.83;;;;;;;-141.48;100.00;69781.59;5147061;28;20027;-64
2021/12/25 06:05:53;;;;;;;21.02;19.02;;;;;;;-141.48;100.00;69781.59;5147230;28;20034;-64
2021/12/25 06:08:25;;;;;;;22.30;20.40;;;;;;;-141.48;100.00;69781.59;5147416;28;20294;-64
2021/12/25 06:10:55;;;;;;;20.50;18.85;;;;;;;-141.48;100.00;69781.59;5147230;28;20187;-63
2021/12/25 06:13:26;;;;;;;20.80;18.90;;;;;;;-141.48;100.00;69781.59;5146907;28;20494;-63
2021/12/25 06:15:57;;;;;;;23.75;21.73;;;;;;;-141.48;100.00;69781.59;5147125;28;20133;-63
2021/12/25 06:18:27;;;;;;;21.35;19.75;;;;;;;-141.48;100.00;69781.59;5147468;28;20454;-64
2021/12/25 06:20:58;;;;;;;22.13;20.33;;;;;;;-141.48;100.00;69781.59;5164635;28;20490;-63
2021/12/25 06:23:30;;;;;;;23.10;21.15;;;;;;;-141.48;100.00;69781.59;5146817;28;20402;-64
2021/12/25 06:26:00;;;;;;;23.55;21.50;;;;;;;-141.48;100.00;69781.59;5164432;28;20363;-63
2021/12/25 06:28:30;;;;;;;24.83;22.83;;;;;;;-141.48;100.00;69781.59;5147034;28;20082;-65
2021/12/25 06:31:01;;;;;;;26.35;23.98;;;;;;;-141.48;100.00;69781.59;5147038;28;20031;-62
2021/12/25 06:33:31;;;;;;;26.27;24.08;;;;;;;-141.48;100.00;69781.59;5146587;28;20113;-63
2021/12/25 06:36:04;;;;;;;27.40;25.00;;;;;;;-141.48;100.00;69781.59;5147008;28;20030;-64
2021/12/25 06:38:35;;;;;;;24.85;22.77;;;;;;;-141.48;100.00;69781.59;5164738;28;20390;-63
2021/12/25 06:41:07;;;;;;;22.95;21.10;;;;;;;-141.48;100.00;69781.59;5147020;28;20023;-63
2021/12/25 06:43:38;;;;;;;24.35;22.23;;;;;;;-141.48;100.00;69781.59;5146623;28;20026;-62
2021/12/25 06:46:08;;;;;;;25.65;23.52;;;;;;;-141.48;100.00;69781.59;5164589;28;20060;-65
2021/12/25 06:48:41;;;;;;;28.70;26.20;;;;;;;-141.48;100.00;69781.59;5146794;28;20030;-63
2021/12/25 06:51:12;;;;;;;27.20;25.02;;;;;;;-141.48;100.00;69781.59;5146659;28;20069;-64
2021/12/25 06:53:42;;;;;;;30.13;27.33;;;;;;;-141.48;100.00;69781.59;5146694;28;20105;-64
2021/12/25 06:56:13;;;;;;;26.20;24.20;;;;;;;-141.48;100.00;69781.59;5146908;28;20118;-62
2021/12/25 06:58:44;;;;;;;26.27;23.88;;;;;;;-141.48;100.00;69781.59;5150128;28;20029;-64
2021/12/25 07:01:14;;;;;;;25.05;22.90;;;;;;;-141.48;100.00;69781.59;5150617;28;20449;-66
2021/12/25 07:03:44;;;;;;;25.42;23.45;;;;;;;-141.48;100.00;69781.59;5150502;28;20498;-63
2021/12/25 07:06:15;;;;;;;27.80;25.63;;;;;;;-141.48;100.00;69781.59;5150834;28;20026;-63
2021/12/25 07:08:46;;;;;;;26.15;24.00;;;;;;;-141.48;100.00;69781.59;5150328;28;20026;-65
2021/12/25 07:11:17;;;;;;;27.35;25.20;;;;;;;-141.48;100.00;69781.59;5150613;28;20409;-64
2021/12/25 07:13:49;;;;;;;25.13;22.95;;;;;;;-141.48;100.00;69781.59;5149951;28;20509;-64
2021/12/25 07:16:19;;;;;;;24.00;21.85;;;;;;;-141.48;100.00;69781.59;5150290;28;20497;-64
2021/12/25 07:18:50;;;;;;;22.70;20.77;;;;;;;-141.48;100.00;69781.59;5150091;28;20014;-64
2021/12/25 07:21:21;;;;;;;21.75;19.80;;;;;;;-141.48;100.00;69781.59;5167571;28;20057;-64
2021/12/25 07:23:51;;;;;;;22.15;20.40;;;;;;;-141.48;100.00;69781.59;5149907;28;20027;-64
2021/12/25 07:26:22;;;;;;;21.58;19.75;;;;;;;-141.48;100.00;69781.59;5149891;28;20030;-66
2021/12/25 07:28:52;;;;;;;22.15;20.55;;;;;;;-141.48;100.00;69781.59;5150052;28;20022;-62
2021/12/25 07:31:23;;;;;;;19.83;18.30;;;;;;;-141.48;100.00;69781.59;5149875;28;20026;-63
2021/12/25 07:33:53;;;;;;;18.20;16.52;;;;;;;-141.48;100.00;69781.59;5149747;28;20026;-64
2021/12/25 07:36:24;;;;;;;19.70;18.20;;;;;;;-141.48;100.00;69781.59;5150111;28;20026;-64
2021/12/25 07:38:56;;;;;;;20.70;19.23;;;;;;;-141.48;100.00;69781.59;5149753;28;20072;-64
2021/12/25 07:41:26;;;;;;;20.45;18.90;;;;;;;-141.48;100.00;69781.59;5149540;28;20602;-63
2021/12/25 07:43:57;;;;;;;20.50;18.67;;;;;;;-141.48;100.00;69781.59;5149434;28;20102;-63
2021/12/25 07:46:27;;;;;;;20.73;19.13;;;;;;;-141.48;100.00;69781.59;5149803;28;20070;-64
2021/12/25 07:48:58;;;;;;;19.52;17.95;;;;;;;-141.48;100.00;69781.59;5149796;28;20054;-62
2021/12/25 07:51:29;;;;;;;23.95;21.83;;;;;;;-141.48;100.00;69781.59;5149196;28;20033;-64
2021/12/25 07:53:59;;;;;;;20.38;18.88;;;;;;;-141.48;100.00;69781.59;5149324;28;20167;-64
2021/12/25 07:56:29;;;;;;;20.83;19.17;;;;;;;-141.48;100.00;69781.59;5149392;28;20088;-64
2021/12/25 07:59:00;;;;;;;22.75;20.77;;;;;;;-141.48;100.00;69781.59;5149493;28;20022;-64
2021/12/25 08:01:34;;;;;;;22.38;20.50;;;;;;;-141.48;100.00;69781.59;5149408;28;20026;-64
2021/12/25 08:04:05;;;;;;;23.33;21.30;;;;;;;-141.48;100.00;69781.59;5149084;28;20070;-62
2021/12/25 08:06:36;;;;;;;25.92;23.88;;;;;;;-141.48;100.00;69781.59;5149283;28;20026;-64
2021/12/25 08:09:06;;;;;;;27.92;25.75;;;;;;;-141.48;100.00;69781.59;5148158;28;20379;-64
2021/12/25 08:11:37;;;;;;;26.88;24.27;;;;;;;-141.48;100.00;69781.59;5148977;28;20054;-64
2021/12/25 08:14:07;;;;;;;27.58;25.20;;;;;;;-141.48;100.00;69781.59;5148680;28;20037;-64
2021/12/25 08:16:38;;;;;;;25.60;23.52;;;;;;;-141.48;100.00;69781.59;5148978;28;20084;-65
2021/12/25 08:19:09;;;;;;;27.05;24.75;;;;;;;-141.48;100.00;69781.59;5149013;28;20027;-63
2021/12/25 08:21:39;;;;;;;26.85;24.33;;;;;;;-141.48;100.00;69781.59;5149184;28;20022;-62
2021/12/25 08:24:09;;;;;;;26.98;24.35;;;;;;;-141.48;100.00;69781.59;5148947;28;20625;-63
2021/12/25 08:26:41;;;;;;;28.83;26.30;;;;;;;-141.48;100.00;69781.59;5162740;28;20030;-63
2021/12/25 08:29:13;;;;;;;27.85;25.20;;;;;;;-141.48;100.00;69781.59;5147864;28;20022;-62
2021/12/25 08:31:43;;;;;;;28.42;25.80;;;;;;;-141.48;100.00;69781.59;5148556;28;20030;-63
2021/12/25 08:34:14;;;;;;;27.90;25.17;;;;;;;-141.48;100.00;69781.59;5148662;28;20034;-63
2021/12/25 08:36:44;;;;;;;25.23;22.92;;;;;;;-141.48;100.00;69781.59;5148663;28;20058;-63
2021/12/25 08:39:15;;;;;;;28.75;26.13;;;;;;;-141.48;100.00;69781.59;5148581;28;20033;-62
2021/12/25 08:41:46;;;;;;;30.58;27.90;;;;;;;-141.48;100.00;69781.59;5148259;28;20037;-63
2021/12/25 08:44:32;;;;;;;23.88;21.63;;;;;;;-141.48;100.00;69781.59;5148247;28;20112;-64
2021/12/25 08:47:08;;;;;;;26.98;24.70;;;;;;;-141.48;100.00;69781.59;5148596;28;20434;-61
2021/12/25 08:49:40;;;;;;;28.95;26.35;;;;;;;-141.48;100.00;69781.59;5148087;28;20390;-63
2021/12/25 08:52:13;;;;;;;26.25;23.77;;;;;;;-141.48;100.00;69781.59;5148220;28;20402;-63
2021/12/25 08:54:45;;;;;;;26.63;24.23;;;;;;;-141.48;100.00;69781.59;5148825;28;20061;-63
2021/12/25 08:57:18;;;;;;;26.75;24.27;;;;;;;-141.48;100.00;69781.59;5148118;28;20721;-63
2021/12/25 08:59:54;;;;;;;26.00;23.67;;;;;;;-141.48;100.00;69781.59;5148146;28;20023;-63
2021/12/25 09:02:25;;;;;;;27.35;24.80;;;;;;;-141.48;100.00;69781.59;5148092;28;20057;-63
2021/12/25 09:04:55;;;;;;;27.13;24.70;;;;;;;-141.48;100.00;69781.59;5148158;28;20115;-62
2021/12/25 09:07:26;;;;;;;26.20;23.98;;;;;;;-141.48;100.00;69781.59;5166004;28;20030;-63
2021/12/25 09:09:57;;;;;;;25.42;23.25;;;;;;;-141.48;100.00;69781.59;5147244;28;20022;-63
2021/12/25 09:12:28;;;;;;;26.33;23.88;;;;;;;-141.48;100.00;69781.59;5146782;28;20026;-62
2021/12/25 09:15:04;;;;;;;27.20;24.65;;;;;;;-141.48;100.00;69781.59;5165428;28;20037;-61
2021/12/25 09:17:34;;;;;;;25.35;23.13;;;;;;;-141.48;100.00;69781.59;5148424;28;20022;-62
2021/12/25 09:20:06;;;;;;;25.77;23.58;;;;;;;-141.48;100.00;69781.59;5165131;28;20026;-62
2021/12/25 09:22:37;;;;;;;25.02;22.83;;;;;;;-141.48;100.00;69781.59;5147794;28;20052;-63
2021/12/25 09:25:08;;;;;;;23.83;21.75;;;;;;;-141.48;100.00;69781.59;5147754;28;20026;-63
2021/12/25 09:27:38;;;;;;;22.48;20.63;;;;;;;-141.48;100.00;69781.59;5147724;28;20031;-62
2021/12/25 09:30:10;;;;;;;21.23;19.48;;;;;;;-141.48;100.00;69781.59;5147608;28;20053;-63
2021/12/25 09:32:41;;;;;;;24.90;22.90;;;;;;;-141.48;100.00;69781.59;5148201;28;20034;-60
2021/12/25 09:35:12;;;;;;;24.00;21.75;;;;;;;-141.48;100.00;69781.59;5147684;28;20088;-62
2021/12/25 09:37:42;;;;;;;25.98;23.85;;;;;;;-141.48;100.00;69781.59;5148106;28;20030;-62
2021/12/25 09:40:13;;;;;;;25.25;23.08;;;;;;;-141.48;100.00;69781.59;5141733;28;20049;-62
2021/12/25 09:42:44;;;;;;;24.75;22.60;;;;;;;-141.48;100.00;69781.59;5147177;28;20030;-62
2021/12/25 09:45:15;;;;;;;26.02;23.92;;;;;;;-141.48;100.00;69781.59;5147572;28;20037;-63
2021/12/25 09:47:45;;;;;;;24.23;22.23;;;;;;;-141.48;100.00;69781.59;5147705;28;20500;-63
2021/12/25 09:50:16;;;;;;;23.83;21.65;;;;;;;-141.48;100.00;69781.59;5147270;28;20073;-63
2021/12/25 09:52:46;;;;;;;23.48;21.58;;;;;;;-141.48;100.00;69781.59;5147543;28;20077;-64
2021/12/25 09:55:18;;;;;;;23.73;21.73;;;;;;;-141.48;100.00;69781.59;5147276;28;20065;-64
2021/12/25 09:57:49;;;;;;;24.27;22.25;;;;;;;-141.48;100.00;69781.59;5147348;28;20033;-62
2021/12/25 10:00:22;;;;;;;27.02;24.45;;;;;;;-141.48;100.00;69781.59;5165324;28;20026;-64
2021/12/25 10:02:55;;;;;;;27.55;25.13;;;;;;;-141.48;100.00;69781.59;5147410;28;20116;-60
2021/12/25 10:05:35;;;;;;;26.48;23.98;;;;;;;-141.48;100.00;69781.59;5147177;28;20419;-63
2021/12/25 10:08:15;;;;;;;27.90;25.08;;;;;;;-141.48;100.00;69781.59;5150055;28;20085;-62
2021/12/25 10:10:48;;;;;;;26.30;23.95;;;;;;;-141.48;100.00;69781.59;5150148;28;20482;-62
2021/12/25 10:13:39;;;;;;;28.20;25.38;;;;;;;-141.48;100.00;69781.59;5150120;28;20121;-62
2021/12/25 10:16:26;;;;;;;;;;;;;;;-141.48;100.00;69781.59;5150558;28;20092;-61
2021/12/25 10:19:18;;;;;;;27.30;24.95;;;;;;;-141.48;100.00;69781.59;5150138;28;20374;-62
2021/12/25 10:22:05;;;;;;;28.30;25.77;;;;;;;-141.48;100.00;69781.59;5149412;28;20109;-62
2021/12/25 10:24:51;;;;;;;27.00;24.73;;;;;;;-141.48;100.00;69781.59;5149580;28;20030;-62
2021/12/25 10:27:25;;;;;;;27.05;24.42;;;;;;;-141.48;100.00;69781.59;5149808;28;20120;-62
2021/12/25 10:30:00;;;;;;;26.50;24.13;;;;;;;-141.48;100.00;69781.59;5149479;28;20117;-61
2021/12/25 10:32:37;;;;;;;26.48;24.17;;;;;;;-141.48;100.00;69781.59;5148994;28;20030;-61
2021/12/25 10:35:17;;;;;;;25.33;23.20;;;;;;;-141.48;100.00;69781.59;5151319;28;20500;-63
2021/12/25 10:37:50;;;;;;;;;;;;;;;-141.48;100.00;69781.59;5168894;28;20026;-63
2021/12/25 10:40:32;;;;;;;27.55;25.25;;;;;;;-141.48;100.00;69781.59;5150517;28;20389;-61
2021/12/25 10:43:03;;;;;;;28.67;26.17;;;;;;;-141.48;100.00;69781.59;5151015;28;20026;-61
2021/12/25 10:45:34;;;;;;;31.75;28.65;;;;;;;-141.48;100.00;69781.59;5150959;28;20034;-63
2021/12/25 10:48:09;;;;;;;30.88;28.27;;;;;;;-141.48;100.00;69781.59;5151068;28;20038;-61
2021/12/25 10:50:43;;;;;;;29.67;27.15;;;;;;;-141.48;100.00;69781.59;5150342;28;20030;-61
2021/12/25 10:53:37;;;;;;;29.40;26.85;;;;;;;-141.48;100.00;69781.59;5150744;28;20044;-60
2021/12/25 10:56:15;;;;;;;29.88;27.17;;;;;;;-141.48;100.00;69781.59;5150649;28;20022;-60
2021/12/25 10:58:46;;;;;;;26.83;24.63;;;;;;;-141.48;100.00;69781.59;5150868;28;20084;-60
2021/12/25 11:03:58;;;;;;;26.13;23.85;;;;;;;-141.48;100.00;69781.59;5166697;28;20057;-63
2021/12/25 11:06:28;;;;;;;24.23;22.25;;;;;;;-141.48;100.00;69781.59;5166898;28;20022;-61
2021/12/25 11:08:59;;;;;;;27.27;24.98;;;;;;;-141.48;100.00;69781.59;5150949;28;20052;-61
2021/12/25 11:11:29;;;;;;;26.38;24.20;;;;;;;-141.48;100.00;69781.59;5150590;28;20474;-61
2021/12/25 11:14:02;;;;;;;27.77;25.25;;;;;;;-141.48;100.00;69781.59;5150414;28;20418;-61
2021/12/25 11:16:38;;;;;;;27.17;25.10;;;;;;;-141.48;100.00;69781.59;5151022;28;20105;-61
2021/12/25 11:19:16;;;;;;;29.02;26.38;;;;;;;-141.48;100.00;69781.59;5148844;28;20088;-61
2021/12/25 11:21:47;;;;;;;27.00;24.83;;;;;;;-141.48;100.00;69781.59;5150220;28;20483;-61
2021/12/25 11:24:23;;;;;;;28.83;26.63;;;;;;;-141.48;100.00;69781.59;5149576;28;20129;-61
2021/12/25 11:27:02;;;;;;;28.17;25.77;;;;;;;-141.48;100.00;69781.59;5149938;28;20038;-61
2021/12/25 11:29:37;;;;;;;24.85;22.75;;;;;;;-141.48;100.00;69781.59;5149812;28;20034;-61
2021/12/25 11:32:09;;;;;;;25.00;22.85;;;;;;;-141.48;100.00;69781.59;5149512;28;20090;-60
2021/12/25 11:34:40;;;;;;;25.02;22.92;;;;;;;-141.48;100.00;69781.59;5149307;28;20116;-61
2021/12/25 11:37:13;;;;;;;23.80;21.90;;;;;;;-141.48;100.00;69781.59;5149516;28;20070;-61
2021/12/25 11:39:51;;;;;;;25.50;23.02;;;;;;;-141.48;100.00;69781.59;5150021;28;20084;-61
2021/12/25 11:42:24;;;;;;;21.88;20.10;;;;;;;-141.48;100.00;69781.59;5134635;28;20030;-60
2021/12/25 11:44:55;;;;;;;24.33;22.25;;;;;;;-141.48;100.00;69781.59;5149358;28;20030;-61
2021/12/25 11:47:33;;;;;;;24.20;22.10;;;;;;;-141.48;100.00;69781.59;5149629;28;20034;-61
2021/12/25 11:50:24;;;;;;;22.90;21.02;;;;;;;-141.48;100.00;69781.59;5149215;28;20364;-60
2021/12/25 11:53:17;;;;;;;25.15;23.00;;;;;;;-141.48;100.00;69781.59;5166871;28;20057;-61
2021/12/25 11:56:20;;;;;;;26.80;24.25;;;;;;;-141.48;100.00;69781.59;5149403;28;20026;-61
2021/12/25 11:58:58;;;;;;;26.02;23.70;;;;;;;-141.48;100.00;69781.59;5149054;28;20049;-61
2021/12/25 12:01:31;;;;;;;24.50;22.63;;;;;;;-141.48;100.00;69781.59;5149031;28;20041;-62
2021/12/25 12:04:03;;;;;;;22.42;20.38;;;;;;;-141.48;100.00;69781.59;5149123;28;20030;-61
2021/12/25 12:06:46;;;;;;;24.67;22.67;;;;;;;-141.48;100.00;69781.59;5149238;28;20392;-61
2021/12/25 12:09:36;;;;;;;22.95;21.15;;;;;;;-141.48;100.00;69781.59;5149384;28;20505;-61
2021/12/25 12:12:20;;;;;;;23.63;21.77;;;;;;;-141.48;100.00;69781.59;5148707;28;20026;-61
2021/12/25 12:15:13;;;;;;;23.90;21.90;;;;;;;-141.48;100.00;69781.59;5132805;28;20030;-61
2021/12/25 12:17:46;;;;;;;24.23;22.27;;;;;;;-141.48;100.00;69781.59;5148803;28;20117;-61
2021/12/25 12:20:36;;;;;;;22.27;20.50;;;;;;;-141.48;100.00;69781.59;5133220;28;20054;-61
2021/12/25 12:23:37;;;;;;;22.35;20.58;;;;;;;-141.48;100.00;69781.59;5148735;28;20030;-61
2021/12/25 12:26:14;;;;;;;23.40;21.60;;;;;;;-141.48;100.00;69781.59;5148950;28;20502;-61
2021/12/25 12:28:53;;;;;;;22.50;20.65;;;;;;;-141.48;100.00;69781.59;5166476;28;20402;-61
2021/12/25 12:31:37;;;;;;;22.27;20.40;;;;;;;-141.48;100.00;69781.59;5148542;28;20390;-61
2021/12/25 12:34:34;;;;;;;25.10;23.17;;;;;;;-141.48;100.00;69781.59;5148339;28;20486;-60